createdAt,value
2018-06-24T00:01:17.716Z,13.45
2018-06-24T00:03:47.866Z,13.48
2018-06-24T00:06:17.572Z,13.46
2018-06-24T00:08:47.345Z,13.35
2018-06-24T00:11:23.949Z,13.41
2018-06-24T00:13:53.664Z,13.40
2018-06-24T00:16:23.284Z,13.36
2018-06-24T00:18:52.915Z,13.24
2018-06-24T00:21:22.605Z,13.25
2018-06-24T00:23:52.292Z,13.23
2018-06-24T00:26:21.940Z,13.23
2018-06-24T00:28:51.604Z,13.11
2018-06-24T00:31:21.285Z,13.13
2018-06-24T00:33:50.937Z,12.99
2018-06-24T00:36:20.632Z,12.97
2018-06-24T00:38:50.512Z,12.92
2018-06-24T00:41:20.188Z,12.93
2018-06-24T00:43:49.810Z,12.87
2018-06-24T00:46:19.449Z,12.89
2018-06-24T00:48:49.148Z,12.89
2018-06-24T00:51:18.784Z,12.89
2018-06-24T00:53:48.485Z,12.75
2018-06-24T00:56:18.168Z,12.69
2018-06-24T00:58:47.807Z,12.71
2018-06-24T01:01:17.491Z,12.63
2018-06-24T01:03:47.136Z,12.56
2018-06-24T01:06:17.428Z,12.47
2018-06-24T01:08:47.148Z,12.46
2018-06-24T01:11:16.799Z,12.39
2018-06-24T01:13:46.438Z,12.35
2018-06-24T01:16:16.116Z,12.29
2018-06-24T01:18:45.776Z,12.23
2018-06-24T01:21:15.547Z,12.18
2018-06-24T01:23:45.225Z,12.08
2018-06-24T01:26:14.861Z,12.08
2018-06-24T01:28:44.517Z,12.00
2018-06-24T01:31:14.230Z,11.95
2018-06-24T01:33:43.936Z,11.92
2018-06-24T01:36:13.579Z,11.77
2018-06-24T01:38:43.384Z,11.57
2018-06-24T01:41:13.032Z,11.46
2018-06-24T01:43:42.681Z,11.67
2018-06-24T01:46:12.379Z,11.85
2018-06-24T01:48:42.000Z,11.57
2018-06-24T01:51:17.672Z,11.17
2018-06-24T01:53:47.312Z,10.95
2018-06-24T01:56:16.943Z,10.85
2018-06-24T01:58:46.640Z,10.99
2018-06-24T02:01:16.314Z,10.90
2018-06-24T02:03:45.975Z,11.03
2018-06-24T02:06:15.668Z,11.26
2018-06-24T02:08:45.305Z,11.11
2018-06-24T02:11:14.949Z,10.85
2018-06-24T02:13:44.625Z,10.67
2018-06-24T02:16:14.285Z,10.90
2018-06-24T02:18:43.925Z,10.73
2018-06-24T02:21:13.601Z,10.64
2018-06-24T02:23:43.267Z,10.76
2018-06-24T02:26:12.962Z,10.69
2018-06-24T02:28:42.601Z,10.64
2018-06-24T02:31:12.276Z,10.71
2018-06-24T02:33:41.911Z,10.76
2018-06-24T02:36:11.538Z,10.78
2018-06-24T02:38:41.204Z,10.78
2018-06-24T02:41:11.070Z,10.75
2018-06-24T02:43:41.338Z,10.79
2018-06-24T02:46:10.995Z,10.82
2018-06-24T02:48:40.728Z,10.84
2018-06-24T02:51:10.470Z,10.79
2018-06-24T02:53:40.149Z,10.77
2018-06-24T02:56:09.750Z,10.78
2018-06-24T02:58:39.449Z,10.82
2018-06-24T03:01:09.301Z,10.76
2018-06-24T03:03:38.912Z,10.79
2018-06-24T03:06:08.604Z,10.79
2018-06-24T03:08:38.276Z,10.74
2018-06-24T03:11:07.923Z,10.68
2018-06-24T03:13:37.600Z,10.60
2018-06-24T03:16:07.247Z,10.55
2018-06-24T03:18:36.932Z,10.54
2018-06-24T03:21:06.752Z,10.53
2018-06-24T03:23:36.387Z,10.58
2018-06-24T03:26:06.058Z,10.57
2018-06-24T03:28:35.684Z,10.60
2018-06-24T03:31:05.333Z,10.47
2018-06-24T03:33:35.021Z,10.40
2018-06-24T03:36:04.728Z,10.52
2018-06-24T03:38:34.448Z,10.55
2018-06-24T03:41:04.131Z,10.54
2018-06-24T03:43:33.748Z,10.59
2018-06-24T03:46:03.429Z,10.59
2018-06-24T03:48:33.103Z,10.61
2018-06-24T03:51:02.736Z,10.66
2018-06-24T03:53:32.400Z,10.69
2018-06-24T03:56:02.079Z,10.72
2018-06-24T03:58:31.700Z,10.75
2018-06-24T04:01:01.366Z,10.78
2018-06-24T04:03:31.044Z,10.79
2018-06-24T04:06:00.685Z,10.92
2018-06-24T04:08:30.347Z,11.04
2018-06-24T04:11:00.059Z,11.12
2018-06-24T04:13:29.696Z,11.21
2018-06-24T04:16:03.972Z,11.24
2018-06-24T04:18:38.997Z,11.30
2018-06-24T04:21:08.988Z,11.32
2018-06-24T04:23:38.609Z,11.38
2018-06-24T04:26:09.562Z,11.31
2018-06-24T04:28:39.588Z,11.29
2018-06-24T04:31:10.265Z,11.36
2018-06-24T04:33:40.155Z,11.36
2018-06-24T04:36:09.779Z,11.39
2018-06-24T04:38:39.456Z,11.38
2018-06-24T04:41:09.139Z,11.38
2018-06-24T04:43:38.771Z,11.49
2018-06-24T04:46:08.456Z,11.54
2018-06-24T04:48:38.080Z,11.55
2018-06-24T04:51:07.704Z,11.54
2018-06-24T04:53:37.402Z,11.61
2018-06-24T04:56:07.050Z,11.63
2018-06-24T04:58:36.724Z,11.68
2018-06-24T05:01:06.392Z,11.81
2018-06-24T05:03:36.023Z,11.81
2018-06-24T05:06:05.663Z,11.86
2018-06-24T05:08:35.327Z,11.89
2018-06-24T05:11:04.972Z,11.98
2018-06-24T05:13:34.613Z,12.03
2018-06-24T05:16:04.484Z,12.00
2018-06-24T05:18:34.111Z,12.08
2018-06-24T05:21:03.763Z,12.04
2018-06-24T05:23:33.487Z,12.11
2018-06-24T05:26:03.131Z,12.18
2018-06-24T05:28:32.765Z,12.28
2018-06-24T05:31:02.453Z,12.32
2018-06-24T05:33:32.130Z,12.46
2018-06-24T05:36:01.759Z,12.44
2018-06-24T05:38:31.476Z,12.53
2018-06-24T05:41:01.116Z,12.55
2018-06-24T05:43:30.763Z,12.60
2018-06-24T05:46:00.452Z,12.52
2018-06-24T05:48:30.104Z,12.59
2018-06-24T05:50:59.735Z,12.64
2018-06-24T05:53:29.477Z,12.68
2018-06-24T05:55:59.114Z,12.68
2018-06-24T05:58:28.761Z,12.76
2018-06-24T06:00:58.459Z,12.85
2018-06-24T06:03:28.112Z,12.82
2018-06-24T06:05:57.750Z,12.87
2018-06-24T06:08:27.480Z,12.87
2018-06-24T06:10:57.132Z,12.93
2018-06-24T06:13:26.780Z,13.04
2018-06-24T06:15:56.500Z,13.02
2018-06-24T06:18:26.139Z,13.19
2018-06-24T06:20:55.762Z,13.25
2018-06-24T06:23:25.425Z,13.34
2018-06-24T06:25:55.103Z,13.38
2018-06-24T06:28:24.727Z,13.50
2018-06-24T06:30:54.413Z,13.40
2018-06-24T06:33:24.064Z,13.45
2018-06-24T06:35:53.737Z,13.44
2018-06-24T06:38:23.432Z,13.55
2018-06-24T06:40:53.078Z,13.47
2018-06-24T06:43:22.721Z,13.47
2018-06-24T06:45:52.437Z,13.47
2018-06-24T06:48:22.102Z,13.51
2018-06-24T06:50:51.732Z,13.43
2018-06-24T06:53:21.459Z,13.43
2018-06-24T06:55:51.083Z,13.53
2018-06-24T06:58:20.733Z,13.51
2018-06-24T07:00:50.478Z,13.42
2018-06-24T07:03:20.128Z,13.40
2018-06-24T07:05:49.789Z,13.42
2018-06-24T07:08:19.502Z,13.38
2018-06-24T07:10:49.145Z,13.50
2018-06-24T07:13:18.760Z,13.50
2018-06-24T07:15:48.441Z,13.52
2018-06-24T07:18:18.068Z,13.61
2018-06-24T07:20:47.714Z,13.55
2018-06-24T07:23:17.408Z,13.50
2018-06-24T07:25:47.072Z,13.46
2018-06-24T07:28:16.693Z,13.41
2018-06-24T07:30:46.465Z,13.37
2018-06-24T07:33:16.623Z,13.35
2018-06-24T07:35:46.268Z,13.29
2018-06-24T07:38:15.925Z,13.32
2018-06-24T07:40:45.584Z,13.41
2018-06-24T07:43:15.232Z,13.38
2018-06-24T07:45:44.867Z,13.48
2018-06-24T07:48:14.533Z,13.54
2018-06-24T07:50:44.188Z,13.55
2018-06-24T07:53:13.824Z,13.60
2018-06-24T07:55:43.636Z,13.64
2018-06-24T07:58:13.297Z,13.64
2018-06-24T08:00:42.918Z,13.64
2018-06-24T08:03:12.592Z,13.65
2018-06-24T08:05:42.656Z,13.60
2018-06-24T08:08:12.316Z,13.69
2018-06-24T08:10:42.004Z,13.69
2018-06-24T08:13:11.693Z,13.74
2018-06-24T08:15:41.395Z,13.86
2018-06-24T08:18:11.054Z,13.82
2018-06-24T08:20:40.739Z,13.79
2018-06-24T08:23:10.439Z,13.73
2018-06-24T08:25:40.135Z,13.79
2018-06-24T08:28:10.744Z,13.81
2018-06-24T08:30:40.470Z,13.80
2018-06-24T08:33:10.161Z,13.87
2018-06-24T08:35:39.870Z,13.83
2018-06-24T08:38:16.176Z,13.87
2018-06-24T08:40:45.868Z,13.88
2018-06-24T08:43:15.546Z,13.88
2018-06-24T08:45:45.237Z,13.88
2018-06-24T08:48:14.876Z,13.78
2018-06-24T08:50:44.513Z,13.83
2018-06-24T08:53:14.236Z,13.86
2018-06-24T08:55:43.869Z,13.87
2018-06-24T08:58:13.561Z,13.87
2018-06-24T09:00:43.265Z,14.04
2018-06-24T09:03:12.919Z,14.17
2018-06-24T09:05:42.560Z,14.26
2018-06-24T09:08:12.243Z,14.33
2018-06-24T09:10:41.894Z,14.40
2018-06-24T09:13:11.567Z,14.46
2018-06-24T09:15:41.349Z,14.36
2018-06-24T09:18:10.908Z,14.41
2018-06-24T09:20:40.573Z,14.59
2018-06-24T09:23:10.275Z,14.70
2018-06-24T09:25:39.981Z,14.90
2018-06-24T09:28:09.636Z,15.06
2018-06-24T09:30:39.342Z,15.18
2018-06-24T09:33:09.019Z,15.21
2018-06-24T09:35:38.674Z,15.22
2018-06-24T09:38:08.360Z,15.25
2018-06-24T09:40:38.006Z,15.12
2018-06-24T09:43:07.746Z,15.13
2018-06-24T09:45:37.448Z,15.23
2018-06-24T09:48:07.184Z,15.41
2018-06-24T09:50:36.893Z,15.48
2018-06-24T09:53:06.645Z,15.56
2018-06-24T09:55:36.551Z,15.74
2018-06-24T09:58:06.514Z,15.72
2018-06-24T10:00:36.310Z,15.76
2018-06-24T10:03:06.004Z,15.76
2018-06-24T10:05:35.671Z,15.62
2018-06-24T10:08:05.495Z,15.48
2018-06-24T10:10:35.286Z,15.41
2018-06-24T10:13:04.945Z,15.45
2018-06-24T10:15:34.624Z,15.51
2018-06-24T10:18:04.353Z,15.58
2018-06-24T10:20:33.998Z,15.60
2018-06-24T10:23:03.644Z,15.71
2018-06-24T10:25:33.339Z,15.84
2018-06-24T10:28:02.975Z,15.83
2018-06-24T10:30:32.759Z,15.67
2018-06-24T10:33:02.557Z,15.75
2018-06-24T10:35:32.231Z,15.97
2018-06-24T10:38:01.957Z,16.00
2018-06-24T10:40:31.639Z,16.06
2018-06-24T10:43:01.355Z,16.14
2018-06-24T10:45:31.006Z,16.02
2018-06-24T10:48:00.727Z,16.06
2018-06-24T10:50:30.455Z,16.00
2018-06-24T10:53:00.211Z,15.86
2018-06-24T10:55:29.827Z,15.82
2018-06-24T10:57:59.640Z,15.66
2018-06-24T11:00:29.320Z,15.78
2018-06-24T11:02:59.223Z,15.88
2018-06-24T11:05:28.948Z,15.92
2018-06-24T11:07:58.619Z,15.96
2018-06-24T11:10:28.506Z,16.21
2018-06-24T11:12:58.200Z,16.26
2018-06-24T11:15:28.320Z,16.23
2018-06-24T11:17:58.014Z,16.16
2018-06-24T11:20:27.869Z,16.14
2018-06-24T11:22:57.625Z,16.18
2018-06-24T11:25:27.304Z,16.28
2018-06-24T11:27:56.982Z,16.30
2018-06-24T11:30:26.710Z,16.14
2018-06-24T11:32:56.396Z,16.05
2018-06-24T11:35:26.163Z,16.08
2018-06-24T11:37:55.814Z,16.13
2018-06-24T11:40:25.488Z,16.34
2018-06-24T11:42:55.207Z,16.64
2018-06-24T11:45:24.923Z,16.57
2018-06-24T11:47:54.588Z,16.78
2018-06-24T11:50:24.264Z,16.82
2018-06-24T11:52:53.949Z,16.74
2018-06-24T11:55:23.601Z,16.69
2018-06-24T11:57:53.316Z,16.67
2018-06-24T12:00:29.519Z,16.70
2018-06-24T12:02:59.217Z,16.59
2018-06-24T12:05:28.884Z,16.21
2018-06-24T12:07:58.578Z,16.22
2018-06-24T12:10:28.315Z,15.99
2018-06-24T12:12:57.990Z,15.82
2018-06-24T12:15:27.651Z,15.74
2018-06-24T12:17:57.380Z,15.89
2018-06-24T12:20:26.996Z,15.95
2018-06-24T12:22:56.640Z,16.20
2018-06-24T12:25:26.368Z,16.21
2018-06-24T12:27:55.981Z,16.25
2018-06-24T12:30:25.621Z,16.37
2018-06-24T12:32:55.825Z,16.49
2018-06-24T12:35:25.515Z,16.34
2018-06-24T12:37:55.293Z,16.42
2018-06-24T12:40:29.993Z,16.21
2018-06-24T12:43:00.169Z,16.13
2018-06-24T12:45:29.837Z,16.19
2018-06-24T12:47:59.551Z,16.22
2018-06-24T12:50:29.332Z,16.30
2018-06-24T12:52:58.999Z,16.27
2018-06-24T12:55:28.657Z,16.43
2018-06-24T12:57:58.359Z,16.32
2018-06-24T13:00:28.676Z,16.45
2018-06-24T13:02:57.699Z,16.33
2018-06-24T13:05:27.496Z,16.34
2018-06-24T13:07:57.177Z,16.32
2018-06-24T13:10:26.975Z,16.30
2018-06-24T13:12:56.693Z,16.30
2018-06-24T13:15:26.362Z,16.26
2018-06-24T13:17:56.097Z,16.29
2018-06-24T13:20:25.792Z,16.25
2018-06-24T13:22:55.483Z,16.29
2018-06-24T13:25:25.251Z,16.32
2018-06-24T13:27:54.902Z,16.32
2018-06-24T13:30:24.560Z,16.17
2018-06-24T13:32:54.237Z,16.22
2018-06-24T13:35:23.920Z,16.16
2018-06-24T13:37:53.620Z,16.18
2018-06-24T13:40:23.402Z,16.20
2018-06-24T13:42:53.034Z,16.30
2018-06-24T13:45:22.801Z,16.42
2018-06-24T13:47:52.480Z,16.37
2018-06-24T13:50:22.129Z,16.35
2018-06-24T13:52:51.776Z,16.26
2018-06-24T13:55:21.466Z,16.16
2018-06-24T13:57:51.137Z,16.20
2018-06-24T14:00:20.846Z,16.35
2018-06-24T14:02:50.752Z,16.33
2018-06-24T14:05:20.475Z,16.47
2018-06-24T14:07:50.182Z,16.36
2018-06-24T14:10:19.801Z,16.33
2018-06-24T14:12:49.460Z,16.18
2018-06-24T14:15:19.176Z,16.26
2018-06-24T14:17:48.822Z,16.21
2018-06-24T14:20:18.503Z,16.19
2018-06-24T14:22:48.240Z,15.96
2018-06-24T14:25:17.884Z,15.96
2018-06-24T14:27:47.556Z,15.96
2018-06-24T14:30:17.248Z,15.96
2018-06-24T14:32:46.964Z,15.96
2018-06-24T14:35:16.636Z,15.98
2018-06-24T14:37:46.343Z,15.98
2018-06-24T14:40:16.121Z,16.07
2018-06-24T14:42:45.779Z,16.05
2018-06-24T14:45:15.485Z,15.91
2018-06-24T14:47:45.138Z,15.84
2018-06-24T14:50:14.799Z,15.69
2018-06-24T14:52:44.497Z,15.67
2018-06-24T14:55:14.186Z,15.64
2018-06-24T14:57:43.861Z,15.65
2018-06-24T15:00:13.703Z,15.73
2018-06-24T15:02:43.598Z,15.61
2018-06-24T15:05:13.721Z,15.63
2018-06-24T15:07:43.731Z,15.76
2018-06-24T15:10:13.469Z,15.69
2018-06-24T15:12:43.124Z,15.68
2018-06-24T15:15:12.805Z,15.63
2018-06-24T15:17:42.480Z,15.62
2018-06-24T15:20:12.161Z,15.53
2018-06-24T15:22:41.799Z,15.59
2018-06-24T15:25:11.516Z,15.62
2018-06-24T15:27:41.243Z,15.69
2018-06-24T15:30:10.941Z,15.62
2018-06-24T15:32:40.840Z,15.55
2018-06-24T15:35:10.567Z,15.58
2018-06-24T15:37:40.311Z,15.52
2018-06-24T15:40:10.069Z,15.41
2018-06-24T15:42:39.756Z,15.43
2018-06-24T15:45:09.629Z,15.43
2018-06-24T15:47:39.283Z,15.27
2018-06-24T15:50:08.961Z,15.24
2018-06-24T15:52:38.671Z,15.42
2018-06-24T15:55:08.389Z,15.33
2018-06-24T15:57:38.084Z,15.29
2018-06-24T16:00:07.780Z,15.28
2018-06-24T16:02:37.436Z,15.32
2018-06-24T16:05:10.176Z,15.26
2018-06-24T16:07:39.863Z,15.21
2018-06-24T16:10:09.564Z,15.09
2018-06-24T16:12:39.219Z,15.20
2018-06-24T16:15:08.944Z,15.13
2018-06-24T16:17:38.641Z,15.23
2018-06-24T16:20:08.306Z,15.26
2018-06-24T16:22:37.952Z,15.23
2018-06-24T16:25:08.347Z,15.27
2018-06-24T16:27:38.040Z,15.32
2018-06-24T16:30:07.736Z,15.33
2018-06-24T16:32:37.439Z,15.31
2018-06-24T16:35:07.138Z,15.44
2018-06-24T16:37:36.807Z,15.35
2018-06-24T16:40:06.661Z,15.33
2018-06-24T16:42:36.364Z,15.33
2018-06-24T16:45:06.236Z,15.29
2018-06-24T16:47:35.872Z,15.30
2018-06-24T16:50:05.784Z,15.30
2018-06-24T16:52:35.493Z,15.33
2018-06-24T16:55:05.280Z,15.30
2018-06-24T16:57:34.935Z,15.24
2018-06-24T17:00:05.223Z,15.19
2018-06-24T17:02:34.872Z,15.16
2018-06-24T17:05:04.666Z,15.20
2018-06-24T17:07:34.392Z,15.08
2018-06-24T17:10:04.137Z,15.05
2018-06-24T17:12:33.864Z,15.13
2018-06-24T17:15:03.598Z,15.06
2018-06-24T17:17:33.283Z,15.17
2018-06-24T17:20:02.943Z,15.21
2018-06-24T17:22:32.712Z,15.18
2018-06-24T17:25:02.358Z,15.14
2018-06-24T17:27:32.014Z,15.09
2018-06-24T17:30:04.677Z,15.05
2018-06-24T17:32:34.355Z,15.03
2018-06-24T17:35:04.224Z,15.08
2018-06-24T17:37:33.917Z,15.06
2018-06-24T17:40:03.647Z,15.13
2018-06-24T17:42:33.375Z,15.08
2018-06-24T17:45:03.096Z,15.03
2018-06-24T17:47:32.854Z,14.97
2018-06-24T17:50:02.511Z,14.89
2018-06-24T17:52:32.198Z,14.87
2018-06-24T17:55:01.870Z,14.86
2018-06-24T17:57:31.579Z,14.85
2018-06-24T18:00:01.259Z,14.85
2018-06-24T18:02:30.936Z,14.88
2018-06-24T18:05:00.644Z,14.84
2018-06-24T18:07:30.287Z,14.85
2018-06-24T18:09:59.963Z,14.76
2018-06-24T18:12:29.640Z,14.69
2018-06-24T18:14:59.298Z,14.77
2018-06-24T18:17:28.956Z,14.78
2018-06-24T18:19:58.624Z,14.81
2018-06-24T18:22:28.261Z,14.80
2018-06-24T18:24:57.944Z,14.66
2018-06-24T18:27:27.635Z,14.67
2018-06-24T18:29:57.338Z,14.52
2018-06-24T18:32:27.018Z,14.59
2018-06-24T18:34:56.685Z,14.66
2018-06-24T18:37:26.344Z,14.62
2018-06-24T18:39:55.970Z,14.68
2018-06-24T18:42:25.655Z,14.63
2018-06-24T18:44:55.333Z,14.61
2018-06-24T18:47:24.997Z,14.65
2018-06-24T18:49:54.760Z,14.59
2018-06-24T18:52:24.530Z,14.60
2018-06-24T18:54:54.236Z,14.71
2018-06-24T18:57:23.908Z,14.69
2018-06-24T18:59:53.542Z,14.66
2018-06-24T19:02:23.366Z,14.63
2018-06-24T19:04:53.050Z,14.66
2018-06-24T19:07:22.804Z,14.62
2018-06-24T19:09:52.509Z,14.66
2018-06-24T19:12:22.175Z,14.70
2018-06-24T19:14:51.926Z,14.67
2018-06-24T19:17:21.631Z,14.66
2018-06-24T19:19:51.327Z,14.60
2018-06-24T19:22:21.004Z,14.55
2018-06-24T19:24:50.703Z,14.56
2018-06-24T19:27:20.436Z,14.57
2018-06-24T19:29:50.202Z,14.52
2018-06-24T19:32:19.913Z,14.44
2018-06-24T19:34:49.576Z,14.42
2018-06-24T19:37:19.316Z,14.39
2018-06-24T19:39:49.231Z,14.42
2018-06-24T19:42:18.949Z,14.35
2018-06-24T19:44:49.329Z,14.38
2018-06-24T19:47:19.208Z,14.39
2018-06-24T19:49:48.870Z,14.31
2018-06-24T19:52:18.597Z,14.35
2018-06-24T19:54:48.285Z,14.39
2018-06-24T19:57:17.949Z,14.34
2018-06-24T19:59:47.649Z,14.33
2018-06-24T20:02:17.379Z,14.33
2018-06-24T20:04:47.077Z,14.25
2018-06-24T20:07:16.744Z,14.27
2018-06-24T20:09:46.431Z,14.32
2018-06-24T20:12:16.151Z,14.35
2018-06-24T20:14:45.788Z,14.33
2018-06-24T20:17:15.423Z,14.36
2018-06-24T20:19:45.152Z,14.38
2018-06-24T20:22:14.833Z,14.28
2018-06-24T20:24:44.488Z,14.29
2018-06-24T20:27:14.266Z,14.27
2018-06-24T20:29:43.954Z,14.29
2018-06-24T20:32:13.627Z,14.31
2018-06-24T20:34:43.350Z,14.25
2018-06-24T20:37:13.010Z,14.28
2018-06-24T20:39:42.673Z,14.25
2018-06-24T20:42:12.369Z,14.28
2018-06-24T20:44:42.024Z,14.26
2018-06-24T20:47:11.682Z,14.24
2018-06-24T20:49:41.379Z,14.23
2018-06-24T20:52:11.057Z,14.21
2018-06-24T20:54:40.714Z,14.19
2018-06-24T20:57:10.415Z,14.24
2018-06-24T20:59:40.102Z,14.28
2018-06-24T21:02:09.848Z,14.27
2018-06-24T21:04:39.723Z,14.30
2018-06-24T21:07:09.396Z,14.31
2018-06-24T21:09:39.081Z,14.29
2018-06-24T21:12:08.729Z,14.33
2018-06-24T21:14:38.366Z,14.27
2018-06-24T21:17:08.063Z,14.23
2018-06-24T21:19:37.713Z,14.20
2018-06-24T21:22:07.406Z,14.25
2018-06-24T21:24:38.289Z,14.20
2018-06-24T21:27:09.344Z,14.19
2018-06-24T21:29:39.600Z,14.27
2018-06-24T21:32:09.353Z,14.22
2018-06-24T21:34:38.975Z,14.13
2018-06-24T21:37:08.659Z,14.17
2018-06-24T21:39:38.393Z,14.12
2018-06-24T21:42:08.095Z,14.17
2018-06-24T21:44:37.738Z,14.12
2018-06-24T21:47:07.384Z,14.09
2018-06-24T21:49:43.590Z,14.18
2018-06-24T21:52:13.253Z,14.26
2018-06-24T21:54:42.992Z,14.22
2018-06-24T21:57:12.679Z,14.23
2018-06-24T21:59:42.383Z,14.18
2018-06-24T22:02:12.074Z,14.14
2018-06-24T22:04:41.752Z,14.06
2018-06-24T22:07:11.464Z,14.02
2018-06-24T22:09:41.136Z,14.00
2018-06-24T22:12:10.837Z,13.91
2018-06-24T22:14:40.556Z,13.84
2018-06-24T22:17:10.240Z,13.79
2018-06-24T22:19:39.920Z,13.78
2018-06-24T22:22:09.651Z,13.79
2018-06-24T22:24:39.360Z,13.78
2018-06-24T22:27:09.108Z,13.74
2018-06-24T22:29:38.776Z,13.69
2018-06-24T22:32:08.551Z,13.65
2018-06-24T22:34:38.315Z,13.63
2018-06-24T22:37:07.979Z,13.62
2018-06-24T22:39:37.652Z,13.61
2018-06-24T22:42:07.327Z,13.61
2018-06-24T22:44:36.969Z,13.60
2018-06-24T22:47:06.683Z,13.60
2018-06-24T22:49:36.371Z,13.60
2018-06-24T22:52:06.190Z,13.54
2018-06-24T22:54:35.876Z,13.50
2018-06-24T22:57:05.639Z,13.54
2018-06-24T22:59:46.248Z,13.50
2018-06-24T23:02:15.949Z,13.55
2018-06-24T23:04:45.623Z,13.55
2018-06-24T23:07:15.324Z,13.58
2018-06-24T23:09:44.952Z,13.58
2018-06-24T23:12:14.604Z,13.59
2018-06-24T23:14:44.276Z,13.57
2018-06-24T23:17:13.933Z,13.47
2018-06-24T23:19:43.583Z,13.45
2018-06-24T23:22:13.313Z,13.43
2018-06-24T23:24:43.236Z,13.45
2018-06-24T23:27:12.900Z,13.51
2018-06-24T23:29:42.609Z,13.48
2018-06-24T23:32:12.316Z,13.47
2018-06-24T23:34:42.296Z,13.44
2018-06-24T23:37:12.011Z,13.53
2018-06-24T23:39:41.731Z,13.52
2018-06-24T23:42:11.424Z,13.55
2018-06-24T23:44:41.056Z,13.54
2018-06-24T23:47:10.716Z,13.57
2018-06-24T23:49:40.440Z,13.60
2018-06-24T23:52:10.116Z,13.59
2018-06-24T23:54:39.784Z,13.55
2018-06-24T23:57:09.487Z,13.57
2018-06-24T23:59:39.144Z,13.53
